createdAt,value
2019-05-17T00:02:23.233Z,9.10
2019-05-17T00:04:50.711Z,10.80
2019-05-17T00:07:18.165Z,8.73
2019-05-17T00:09:47.695Z,8.10
2019-05-17T00:12:16.600Z,9.17
2019-05-17T00:14:51.143Z,8.40
2019-05-17T00:17:26.624Z,10.67
2019-05-17T00:19:59.570Z,9.47
2019-05-17T00:22:47.133Z,8.80
2019-05-17T00:25:21.110Z,9.93
2019-05-17T00:27:58.070Z,9.33
2019-05-17T00:30:26.596Z,8.67
2019-05-17T00:32:54.239Z,9.60
2019-05-17T00:35:21.395Z,9.30
2019-05-17T00:37:48.661Z,11.40
2019-05-17T00:40:18.812Z,10.00
2019-05-17T00:42:46.730Z,11.23
2019-05-17T00:45:14.673Z,10.07
2019-05-17T00:47:41.897Z,8.80
2019-05-17T00:50:12.634Z,12.73
2019-05-17T00:52:40.153Z,10.33
2019-05-17T00:55:08.120Z,10.40
2019-05-17T00:57:36.841Z,10.57
2019-05-17T01:00:08.288Z,11.30
2019-05-17T01:02:36.337Z,10.97
2019-05-17T01:05:06.378Z,9.77
2019-05-17T01:07:33.677Z,10.13
2019-05-17T01:10:00.933Z,11.43
2019-05-17T01:12:28.204Z,14.33
2019-05-17T01:14:55.353Z,11.73
2019-05-17T01:17:22.517Z,12.67
2019-05-17T01:19:49.886Z,11.50
2019-05-17T01:22:17.241Z,11.60
2019-05-17T01:24:46.279Z,11.27
2019-05-17T01:27:13.876Z,11.20
2019-05-17T01:29:41.148Z,12.57
2019-05-17T01:32:08.455Z,13.23
2019-05-17T01:34:37.617Z,11.17
2019-05-17T01:37:06.504Z,10.53
2019-05-17T01:39:34.119Z,11.60
2019-05-17T01:42:01.305Z,10.50
2019-05-17T01:44:28.518Z,12.23
2019-05-17T01:46:56.723Z,10.90
2019-05-17T01:49:24.033Z,11.90
2019-05-17T01:51:51.175Z,11.33
2019-05-17T01:54:18.326Z,11.10
2019-05-17T01:56:46.296Z,10.67
2019-05-17T01:59:13.728Z,11.97
2019-05-17T02:01:42.686Z,11.47
2019-05-17T02:04:09.927Z,12.07
2019-05-17T02:06:37.087Z,12.23
2019-05-17T02:09:06.356Z,11.27
2019-05-17T02:11:33.744Z,10.63
2019-05-17T02:14:01.119Z,10.63
2019-05-17T02:16:28.396Z,10.80
2019-05-17T02:18:57.320Z,11.73
2019-05-17T02:21:24.716Z,10.47
2019-05-17T02:23:51.905Z,11.23
2019-05-17T02:26:19.270Z,11.60
2019-05-17T02:28:46.639Z,11.07
2019-05-17T02:31:14.300Z,10.57
2019-05-17T02:33:43.028Z,11.47
2019-05-17T02:36:13.918Z,9.60
2019-05-17T02:38:39.703Z,11.23
2019-05-17T02:41:07.046Z,12.00
2019-05-17T02:43:34.320Z,11.17
2019-05-17T02:46:03.691Z,10.53
2019-05-17T02:48:33.888Z,9.73
2019-05-17T02:51:03.157Z,9.97
2019-05-17T02:53:29.168Z,12.00
2019-05-17T02:55:56.328Z,11.50
2019-05-17T02:58:23.614Z,10.20
2019-05-17T03:00:53.298Z,10.23
2019-05-17T03:03:23.447Z,11.47
2019-05-17T03:05:49.359Z,9.87
2019-05-17T03:08:16.742Z,11.73
2019-05-17T03:10:44.093Z,9.87
2019-05-17T03:13:13.226Z,10.03
2019-05-17T03:15:43.189Z,13.30
2019-05-17T03:18:09.686Z,9.90
2019-05-17T03:20:36.961Z,10.17
2019-05-17T03:23:04.326Z,10.13
2019-05-17T03:25:33.532Z,14.63
2019-05-17T03:28:02.917Z,11.17
2019-05-17T03:30:36.168Z,9.33
2019-05-17T03:33:06.182Z,10.80
2019-05-17T03:35:36.724Z,10.33
2019-05-17T03:38:03.497Z,13.13
2019-05-17T03:41:01.074Z,12.60
2019-05-17T03:43:02.561Z,13.00
2019-05-17T03:45:28.741Z,11.60
2019-05-17T03:47:56.180Z,12.57
2019-05-17T03:50:23.439Z,11.33
2019-05-17T03:52:53.578Z,9.40
2019-05-17T03:55:23.218Z,9.77
2019-05-17T03:57:52.999Z,11.73
2019-05-17T04:00:22.962Z,12.43
2019-05-17T04:02:48.588Z,10.77
2019-05-17T04:05:15.856Z,10.07
2019-05-17T04:07:43.887Z,10.53
2019-05-17T04:10:15.187Z,11.53
2019-05-17T04:12:44.051Z,11.50
2019-05-17T04:15:14.605Z,11.40
2019-05-17T04:17:44.064Z,10.97
2019-05-17T04:20:13.537Z,13.20
2019-05-17T04:22:44.369Z,14.03
2019-05-17T04:25:13.461Z,11.20
2019-05-17T04:27:43.646Z,13.53
2019-05-17T04:30:12.547Z,11.60
2019-05-17T04:32:39.925Z,13.03
2019-05-17T04:35:08.592Z,12.00
2019-05-17T04:37:38.396Z,13.17
2019-05-17T04:40:05.321Z,12.40
2019-05-17T04:42:33.201Z,12.80
2019-05-17T04:45:03.754Z,14.07
2019-05-17T04:47:32.947Z,12.73
2019-05-17T04:49:59.002Z,13.03
2019-05-17T04:52:26.172Z,12.80
2019-05-17T04:54:53.968Z,13.07
2019-05-17T04:57:23.141Z,12.37
2019-05-17T04:59:52.377Z,13.80
2019-05-17T05:02:19.707Z,16.43
2019-05-17T05:04:46.983Z,11.60
2019-05-17T05:07:14.341Z,16.87
2019-05-17T05:09:42.931Z,12.17
2019-05-17T05:12:12.532Z,12.60
2019-05-17T05:14:39.707Z,10.00
2019-05-17T05:17:06.863Z,11.70
2019-05-17T05:19:34.136Z,11.77
2019-05-17T05:22:04.570Z,12.00
2019-05-17T05:24:31.531Z,11.37
2019-05-17T05:26:58.802Z,10.87
2019-05-17T05:29:26.085Z,9.83
2019-05-17T05:31:53.230Z,11.53
2019-05-17T05:34:21.604Z,9.50
2019-05-17T05:36:48.973Z,13.83
2019-05-17T05:39:16.235Z,11.23
2019-05-17T05:41:43.415Z,11.40
2019-05-17T05:44:12.232Z,9.57
2019-05-17T05:46:42.246Z,11.23
2019-05-17T05:49:09.424Z,10.87
2019-05-17T05:51:36.682Z,10.10
2019-05-17T05:54:04.260Z,12.03
2019-05-17T05:56:32.605Z,12.77
2019-05-17T05:59:02.703Z,12.00
2019-05-17T06:01:29.656Z,9.63
2019-05-17T06:03:56.849Z,10.37
2019-05-17T06:06:24.217Z,9.90
2019-05-17T06:08:52.113Z,9.57
2019-05-17T06:11:21.542Z,10.03
2019-05-17T06:13:49.150Z,11.13
2019-05-17T06:16:16.514Z,9.37
2019-05-17T06:18:43.870Z,9.20
2019-05-17T06:21:12.210Z,9.47
2019-05-17T06:23:42.226Z,9.80
2019-05-17T06:26:08.942Z,12.33
2019-05-17T06:28:36.108Z,11.00
2019-05-17T06:31:03.344Z,10.90
2019-05-17T06:33:34.606Z,10.07
2019-05-17T06:36:02.682Z,12.40
2019-05-17T06:38:29.609Z,9.90
2019-05-17T06:40:56.964Z,9.70
2019-05-17T06:43:24.392Z,10.03
2019-05-17T06:45:52.260Z,12.27
2019-05-17T06:48:22.313Z,11.27
2019-05-17T06:50:48.886Z,11.57
2019-05-17T06:53:16.062Z,10.13
2019-05-17T06:55:44.489Z,10.77
2019-05-17T06:58:12.188Z,9.57
2019-05-17T07:00:40.434Z,9.17
2019-05-17T07:03:09.541Z,12.90
2019-05-17T07:05:40.354Z,11.30
2019-05-17T07:08:10.730Z,10.90
2019-05-17T07:10:39.639Z,13.80
2019-05-17T07:13:06.657Z,12.77
2019-05-17T07:15:43.653Z,11.23
2019-05-17T07:18:03.361Z,13.13
2019-05-17T07:20:30.852Z,11.07
2019-05-17T07:23:00.363Z,10.83
2019-05-17T07:25:27.503Z,11.00
2019-05-17T07:27:54.783Z,12.40
2019-05-17T07:30:22.757Z,12.07
2019-05-17T07:32:50.119Z,10.47
2019-05-17T07:35:19.596Z,12.20
2019-05-17T07:37:46.837Z,11.70
2019-05-17T07:40:14.481Z,12.53
2019-05-17T07:42:41.650Z,11.47
2019-05-17T07:45:10.308Z,13.27
2019-05-17T07:47:40.403Z,13.27
2019-05-17T07:52:30.521Z,15.70
2019-05-17T07:55:02.383Z,14.03
2019-05-17T07:57:27.029Z,15.70
2019-05-17T07:59:54.182Z,19.00
2019-05-17T08:02:21.448Z,13.40
2019-05-17T08:04:50.130Z,18.03
2019-05-17T08:07:19.676Z,14.17
2019-05-17T08:09:47.052Z,13.80
2019-05-17T08:12:14.314Z,13.40
2019-05-17T08:14:41.575Z,15.80
2019-05-17T08:17:10.211Z,14.80
2019-05-17T08:19:40.131Z,12.67
2019-05-17T08:22:09.639Z,17.20
2019-05-17T08:24:36.408Z,15.83
2019-05-17T08:27:03.880Z,14.90
2019-05-17T08:29:31.271Z,15.90
2019-05-17T08:32:01.769Z,16.87
2019-05-17T08:34:29.343Z,16.53
2019-05-17T08:36:56.638Z,17.03
2019-05-17T08:39:23.799Z,20.03
2019-05-17T08:41:50.950Z,21.63
2019-05-17T08:44:19.270Z,19.63
2019-05-17T08:46:46.819Z,17.63
2019-05-17T08:49:14.174Z,18.67
2019-05-17T08:51:41.691Z,18.60
2019-05-17T08:54:10.379Z,17.73
2019-05-17T08:56:40.194Z,17.23
2019-05-17T08:59:09.588Z,16.83
2019-05-17T09:01:40.983Z,15.87
2019-05-17T09:04:05.976Z,17.37
2019-05-17T09:06:33.250Z,14.97
2019-05-17T09:09:00.909Z,18.77
2019-05-17T09:11:30.290Z,15.77
2019-05-17T09:14:01.673Z,14.57
2019-05-17T09:16:27.014Z,17.93
2019-05-17T09:18:54.160Z,17.23
2019-05-17T09:21:21.964Z,16.23
2019-05-17T09:23:50.348Z,15.93
2019-05-17T09:26:19.861Z,15.50
2019-05-17T09:28:46.927Z,16.93
2019-05-17T09:31:14.192Z,16.23
2019-05-17T09:33:41.708Z,15.47
2019-05-17T09:36:10.146Z,15.53
2019-05-17T09:38:40.184Z,15.53
2019-05-17T09:41:09.210Z,15.20
2019-05-17T09:43:36.548Z,15.90
2019-05-17T09:46:03.978Z,16.53
2019-05-17T09:48:31.390Z,13.73
2019-05-17T09:50:59.966Z,14.40
2019-05-17T09:53:27.439Z,13.43
2019-05-17T09:55:54.807Z,13.27
2019-05-17T09:58:22.116Z,13.83
2019-05-17T10:00:49.628Z,13.23
2019-05-17T10:03:17.066Z,12.97
2019-05-17T10:05:44.608Z,13.73
2019-05-17T10:08:12.118Z,13.80
2019-05-17T10:10:40.208Z,12.83
2019-05-17T10:13:09.765Z,13.40
2019-05-17T10:15:37.087Z,12.60
2019-05-17T10:18:04.248Z,11.70
2019-05-17T10:20:31.498Z,10.57
2019-05-17T10:22:59.579Z,11.33
2019-05-17T10:25:29.357Z,12.30
2019-05-17T10:27:56.478Z,10.07
2019-05-17T10:30:24.068Z,10.77
2019-05-17T10:32:51.378Z,10.37
2019-05-17T10:35:19.945Z,10.47
2019-05-17T10:37:50.350Z,9.47
2019-05-17T10:40:20.792Z,9.60
2019-05-17T10:42:50.001Z,7.40
2019-05-17T10:45:19.837Z,8.90
2019-05-17T10:47:47.308Z,9.10
2019-05-17T10:50:14.950Z,8.07
2019-05-17T10:52:42.468Z,8.77
2019-05-17T10:55:10.603Z,7.67
2019-05-17T10:57:38.099Z,6.60
2019-05-17T11:00:06.837Z,9.07
2019-05-17T11:02:34.214Z,7.73
2019-05-17T11:05:04.590Z,6.57
2019-05-17T11:07:31.878Z,9.63
2019-05-17T11:10:00.304Z,5.90
2019-05-17T11:12:28.167Z,5.40
2019-05-17T11:15:09.829Z,5.50
2019-05-17T11:17:25.189Z,4.90
2019-05-17T11:19:52.569Z,4.60
2019-05-17T11:22:20.147Z,5.03
2019-05-17T11:24:47.470Z,4.87
2019-05-17T11:27:15.107Z,4.10
2019-05-17T11:29:42.493Z,6.30
2019-05-17T11:32:10.067Z,3.83
2019-05-17T11:34:37.542Z,5.20
2019-05-17T11:37:05.002Z,3.80
2019-05-17T11:39:32.532Z,4.77
2019-05-17T11:41:59.888Z,4.57
2019-05-17T11:44:27.226Z,3.50
2019-05-17T11:46:54.712Z,3.83
2019-05-17T11:49:22.154Z,2.97
2019-05-17T11:52:03.233Z,4.00
2019-05-17T11:54:30.840Z,3.60
2019-05-17T11:56:58.199Z,4.37
2019-05-17T11:59:25.601Z,3.97
2019-05-17T12:02:02.586Z,4.50
2019-05-17T12:04:36.326Z,3.57
2019-05-17T12:07:04.101Z,4.40
2019-05-17T12:09:37.416Z,3.90
2019-05-17T12:12:00.319Z,3.37
2019-05-17T12:14:27.647Z,4.10
2019-05-17T12:16:54.785Z,3.40
2019-05-17T12:19:22.395Z,3.73
2019-05-17T12:21:49.540Z,4.37
2019-05-17T12:24:16.918Z,4.00
2019-05-17T12:26:47.368Z,3.80
2019-05-17T12:29:13.809Z,4.10
2019-05-17T12:31:41.981Z,4.27
2019-05-17T12:34:09.362Z,4.00
2019-05-17T12:36:36.609Z,4.53
2019-05-17T12:39:05.929Z,5.40
2019-05-17T12:41:33.263Z,3.97
2019-05-17T12:44:00.821Z,4.40
2019-05-17T12:46:28.289Z,4.27
2019-05-17T12:48:55.450Z,5.07
2019-05-17T12:51:22.704Z,4.60
2019-05-17T12:53:49.962Z,4.17
2019-05-17T12:56:17.237Z,3.97
2019-05-17T12:58:44.517Z,6.10
2019-05-17T13:01:11.689Z,4.37
2019-05-17T13:03:38.920Z,4.63
2019-05-17T13:06:06.182Z,5.23
2019-05-17T13:08:33.332Z,4.43
2019-05-17T13:11:00.581Z,5.17
2019-05-17T13:13:27.850Z,6.03
2019-05-17T13:15:55.109Z,5.70
2019-05-17T13:18:22.413Z,5.40
2019-05-17T13:20:49.596Z,5.07
2019-05-17T13:23:16.824Z,5.30
2019-05-17T13:25:44.274Z,4.93
2019-05-17T13:28:11.434Z,5.00
2019-05-17T13:30:38.677Z,4.90
2019-05-17T13:33:06.014Z,4.93
2019-05-17T13:35:33.199Z,4.43
2019-05-17T13:38:00.477Z,6.20
2019-05-17T13:40:27.818Z,5.40
2019-05-17T13:42:55.244Z,5.17
2019-05-17T13:45:22.522Z,4.47
2019-05-17T13:47:49.697Z,5.30
2019-05-17T13:50:17.349Z,4.67
2019-05-17T13:52:44.761Z,4.83
2019-05-17T13:55:12.498Z,4.47
2019-05-17T13:57:39.760Z,5.10
2019-05-17T14:00:07.832Z,4.40
2019-05-17T14:02:35.245Z,3.93
2019-05-17T14:05:03.201Z,5.20
2019-05-17T14:07:30.712Z,4.70
2019-05-17T14:09:58.119Z,4.27
2019-05-17T14:12:25.099Z,4.33
2019-05-17T14:14:52.527Z,5.53
2019-05-17T14:17:19.673Z,4.37
2019-05-17T14:19:46.927Z,4.70
2019-05-17T14:22:14.331Z,5.00
2019-05-17T14:24:41.696Z,4.50
2019-05-17T14:27:08.847Z,4.07
2019-05-17T14:29:36.047Z,4.80
2019-05-17T14:32:03.686Z,4.20
2019-05-17T14:34:32.188Z,5.30
2019-05-17T14:36:59.494Z,4.43
2019-05-17T14:39:27.131Z,5.10
2019-05-17T14:41:54.408Z,3.90
2019-05-17T14:44:21.546Z,4.47
2019-05-17T14:46:48.795Z,4.13
2019-05-17T14:49:15.953Z,6.60
2019-05-17T14:51:43.373Z,4.40
2019-05-17T14:54:10.542Z,3.70
2019-05-17T14:56:38.286Z,4.73
2019-05-17T14:59:05.564Z,3.77
2019-05-17T15:01:33.126Z,3.97
2019-05-17T15:04:00.421Z,4.80
2019-05-17T15:06:27.741Z,3.97
2019-05-17T15:08:55.018Z,4.97
2019-05-17T15:11:22.278Z,3.83
2019-05-17T15:13:49.928Z,3.93
2019-05-17T15:16:17.276Z,4.23
2019-05-17T15:18:44.563Z,3.03
2019-05-17T15:21:11.965Z,4.00
2019-05-17T15:23:39.225Z,5.03
2019-05-17T15:26:06.675Z,3.60
2019-05-17T15:28:33.978Z,3.67
2019-05-17T15:31:01.349Z,3.30
2019-05-17T15:33:28.599Z,5.67
2019-05-17T15:35:55.913Z,5.63
2019-05-17T15:38:23.173Z,3.27
2019-05-17T15:40:50.528Z,3.40
2019-05-17T15:43:17.869Z,3.47
2019-05-17T15:45:45.039Z,4.00
2019-05-17T15:48:12.335Z,4.17
2019-05-17T15:50:39.806Z,4.07
2019-05-17T15:53:07.178Z,4.53
2019-05-17T15:55:34.339Z,3.37
2019-05-17T15:58:01.586Z,6.07
2019-05-17T16:00:28.957Z,4.63
2019-05-17T16:02:56.141Z,3.70
2019-05-17T16:05:23.610Z,3.80
2019-05-17T16:07:50.932Z,5.77
2019-05-17T16:10:18.703Z,3.70
2019-05-17T16:13:01.005Z,7.93
2019-05-17T16:15:15.483Z,3.70
2019-05-17T16:17:42.786Z,3.33
2019-05-17T16:20:16.516Z,5.17
2019-05-17T16:22:42.946Z,4.10
2019-05-17T16:25:10.522Z,4.37
2019-05-17T16:27:38.240Z,3.83
2019-05-17T16:30:07.443Z,4.30
2019-05-17T16:32:36.425Z,3.60
2019-05-17T16:35:04.642Z,3.30
2019-05-17T16:37:31.846Z,3.53
2019-05-17T16:39:59.233Z,3.43
2019-05-17T16:42:26.616Z,3.60
2019-05-17T16:44:57.123Z,3.00
2019-05-17T16:47:24.475Z,5.60
2019-05-17T16:49:51.972Z,3.80
2019-05-17T16:52:24.036Z,4.17
2019-05-17T16:54:51.631Z,3.50
2019-05-17T16:57:19.215Z,3.90
2019-05-17T16:59:46.614Z,3.23
2019-05-17T17:02:14.066Z,3.47
2019-05-17T17:04:43.788Z,2.87
2019-05-17T17:07:11.322Z,3.40
2019-05-17T17:09:38.819Z,3.67
2019-05-17T17:12:06.120Z,3.10
2019-05-17T17:14:33.486Z,3.50
2019-05-17T17:17:00.858Z,3.80
2019-05-17T17:19:28.938Z,2.80
2019-05-17T17:21:56.332Z,3.33
2019-05-17T17:24:23.892Z,5.53
2019-05-17T17:26:52.378Z,3.27
2019-05-17T17:29:19.743Z,4.40
2019-05-17T17:31:46.909Z,3.37
2019-05-17T17:34:14.259Z,3.23
2019-05-17T17:36:41.708Z,3.23
2019-05-17T17:39:09.157Z,3.47
2019-05-17T17:41:36.519Z,4.67
2019-05-17T17:44:04.189Z,3.07
2019-05-17T17:46:31.482Z,3.00
2019-05-17T17:48:58.782Z,3.03
2019-05-17T17:51:26.239Z,2.90
2019-05-17T17:53:53.877Z,3.10
2019-05-17T17:56:21.198Z,3.50
2019-05-17T17:58:48.688Z,2.77
2019-05-17T18:01:16.037Z,2.80
2019-05-17T18:03:43.351Z,3.13
2019-05-17T18:06:10.602Z,3.77
2019-05-17T18:08:37.971Z,2.80
2019-05-17T18:11:05.478Z,4.90
2019-05-17T18:13:32.832Z,2.90
2019-05-17T18:16:00.309Z,2.77
2019-05-17T18:18:27.745Z,2.70
2019-05-17T18:20:55.132Z,3.20
2019-05-17T18:23:23.469Z,2.90
2019-05-17T18:25:51.330Z,3.87
2019-05-17T18:28:18.761Z,2.57
2019-05-17T18:30:46.120Z,3.87
2019-05-17T18:33:13.586Z,2.77
2019-05-17T18:35:41.273Z,2.57
2019-05-17T18:38:08.738Z,2.70
2019-05-17T18:40:36.247Z,3.87
2019-05-17T18:43:04.012Z,5.13
2019-05-17T18:45:31.480Z,3.63
2019-05-17T18:47:59.132Z,3.40
2019-05-17T18:50:27.389Z,3.43
2019-05-17T18:52:55.130Z,4.33
2019-05-17T18:55:22.785Z,3.67
2019-05-17T18:57:50.516Z,2.93
2019-05-17T19:00:18.439Z,3.47
2019-05-17T19:02:45.954Z,3.03
2019-05-17T19:05:13.824Z,3.97
2019-05-17T19:07:41.081Z,3.20
2019-05-17T19:10:08.966Z,3.13
2019-05-17T19:12:36.358Z,4.33
2019-05-17T19:15:04.948Z,3.97
2019-05-17T19:17:32.188Z,5.20
2019-05-17T19:19:59.442Z,4.50
2019-05-17T19:22:26.692Z,4.07
2019-05-17T19:24:54.168Z,4.65
2019-05-17T19:27:21.514Z,5.10
2019-05-17T19:29:48.894Z,4.40
2019-05-17T19:32:16.271Z,5.57
2019-05-17T19:34:43.519Z,6.47
2019-05-17T19:37:10.792Z,5.10
2019-05-17T19:39:38.067Z,5.37
2019-05-17T19:42:05.539Z,5.20
2019-05-17T19:44:32.728Z,4.00
2019-05-17T19:47:00.218Z,4.57
2019-05-17T19:49:27.429Z,5.80
2019-05-17T19:51:54.833Z,4.77
2019-05-17T19:54:22.134Z,4.50
2019-05-17T19:56:49.536Z,4.00
2019-05-17T19:59:16.709Z,4.50
2019-05-17T20:01:43.913Z,5.10
2019-05-17T20:04:11.203Z,6.93
2019-05-17T20:06:38.553Z,5.47
2019-05-17T20:09:06.384Z,5.73
2019-05-17T20:11:34.767Z,6.10
2019-05-17T20:14:02.388Z,4.40
2019-05-17T20:16:29.807Z,7.17
2019-05-17T20:18:57.155Z,6.03
2019-05-17T20:21:24.427Z,5.37
2019-05-17T20:23:51.813Z,5.13
2019-05-17T20:26:19.289Z,6.43
2019-05-17T20:28:46.457Z,4.70
2019-05-17T20:31:13.925Z,4.80
2019-05-17T20:33:41.080Z,5.53
2019-05-17T20:36:08.343Z,6.83
2019-05-17T20:38:35.478Z,4.53
2019-05-17T20:41:02.945Z,6.43
2019-05-17T20:43:30.311Z,7.57
2019-05-17T20:45:57.944Z,8.30
2019-05-17T20:48:26.035Z,9.27
2019-05-17T20:50:53.409Z,5.07
2019-05-17T20:53:20.769Z,5.03
2019-05-17T20:55:48.153Z,4.80
2019-05-17T20:58:15.564Z,4.23
2019-05-17T21:00:43.146Z,5.90
2019-05-17T21:03:13.756Z,3.90
2019-05-17T21:05:39.463Z,4.10
2019-05-17T21:08:07.001Z,4.30
2019-05-17T21:10:34.268Z,4.30
2019-05-17T21:13:01.640Z,5.50
2019-05-17T21:15:28.798Z,5.00
2019-05-17T21:17:56.011Z,5.30
2019-05-17T21:20:23.301Z,5.10
2019-05-17T21:22:50.688Z,4.03
2019-05-17T21:25:18.035Z,4.57
2019-05-17T21:27:45.711Z,5.13
2019-05-17T21:30:13.919Z,5.27
2019-05-17T21:32:41.181Z,3.73
2019-05-17T21:35:08.652Z,3.80
2019-05-17T21:37:36.021Z,4.63
2019-05-17T21:40:04.870Z,4.40
2019-05-17T21:42:32.142Z,4.83
2019-05-17T21:44:59.425Z,4.20
2019-05-17T21:47:26.591Z,6.00
2019-05-17T21:49:53.833Z,4.00
2019-05-17T21:52:21.193Z,4.47
2019-05-17T21:54:48.391Z,3.23
2019-05-17T21:57:15.579Z,4.87
2019-05-17T21:59:42.771Z,4.73
2019-05-17T22:02:10.244Z,5.07
2019-05-17T22:04:37.615Z,5.23
2019-05-17T22:07:05.578Z,5.10
2019-05-17T22:09:32.958Z,6.50
2019-05-17T22:12:03.924Z,5.30
2019-05-17T22:14:31.049Z,5.13
2019-05-17T22:16:58.423Z,6.10
2019-05-17T22:19:25.799Z,4.97
2019-05-17T22:21:53.270Z,4.63
2019-05-17T22:24:20.456Z,6.60
2019-05-17T22:26:47.848Z,4.90
2019-05-17T22:29:15.239Z,4.83
2019-05-17T22:31:42.735Z,5.97
2019-05-17T22:34:10.026Z,5.17
2019-05-17T22:36:37.485Z,4.60
2019-05-17T22:39:06.019Z,4.90
2019-05-17T22:41:33.380Z,5.53
2019-05-17T22:44:00.657Z,6.40
2019-05-17T22:46:36.165Z,5.50
2019-05-17T22:48:57.040Z,6.33
2019-05-17T22:51:24.400Z,6.97
2019-05-17T22:53:51.888Z,5.73
2019-05-17T22:56:19.166Z,6.70
2019-05-17T22:58:46.621Z,7.13
2019-05-17T23:01:13.890Z,6.20
2019-05-17T23:03:41.083Z,6.10
2019-05-17T23:06:08.658Z,6.67
2019-05-17T23:08:36.200Z,9.20
2019-05-17T23:11:03.706Z,5.97
2019-05-17T23:13:30.961Z,5.80
2019-05-17T23:16:06.965Z,6.10
2019-05-17T23:18:35.056Z,5.77
2019-05-17T23:21:03.445Z,6.53
2019-05-17T23:23:30.785Z,5.67
2019-05-17T23:25:58.266Z,5.50
2019-05-17T23:28:25.789Z,5.30
2019-05-17T23:30:53.360Z,5.00
2019-05-17T23:33:20.766Z,5.63
2019-05-17T23:35:48.149Z,4.83
2019-05-17T23:38:15.385Z,4.83
2019-05-17T23:40:42.580Z,4.40
2019-05-17T23:43:09.839Z,4.53
2019-05-17T23:45:37.000Z,4.80
2019-05-17T23:48:04.239Z,4.63
2019-05-17T23:50:31.607Z,4.40
2019-05-17T23:52:58.853Z,4.93
2019-05-17T23:55:26.224Z,4.80
2019-05-17T23:57:53.483Z,5.00
